createdAt,value
2024-05-09T00:00:30.563Z,394.00
2024-05-09T00:01:07.095Z,394.00
2024-05-09T00:01:38.010Z,395.33
2024-05-09T00:02:08.986Z,397.00
2024-05-09T00:02:39.995Z,399.33
2024-05-09T00:03:12.035Z,400.00
2024-05-09T00:03:43.449Z,399.67
2024-05-09T00:04:14.608Z,399.33
2024-05-09T00:04:45.703Z,399.00
2024-05-09T00:05:16.824Z,397.67
2024-05-09T00:05:47.980Z,396.33
2024-05-09T00:06:18.964Z,395.33
2024-05-09T00:06:49.990Z,393.67
2024-05-09T00:07:20.880Z,392.33
2024-05-09T00:07:51.814Z,391.00
2024-05-09T00:08:22.806Z,391.00
2024-05-09T00:08:53.721Z,391.00
2024-05-09T00:09:24.683Z,391.00
2024-05-09T00:09:55.611Z,391.00
2024-05-09T00:10:35.008Z,391.00
2024-05-09T00:11:08.663Z,391.00
2024-05-09T00:11:39.788Z,391.00
2024-05-09T00:12:10.934Z,391.00
2024-05-09T00:12:41.962Z,391.00
2024-05-09T00:13:12.918Z,391.00
2024-05-09T00:13:43.941Z,391.00
2024-05-09T00:14:16.382Z,391.00
2024-05-09T00:14:47.363Z,391.00
2024-05-09T00:15:18.330Z,391.00
2024-05-09T00:15:49.256Z,391.00
2024-05-09T00:16:20.381Z,390.33
2024-05-09T00:16:51.384Z,390.00
2024-05-09T00:17:22.432Z,389.33
2024-05-09T00:17:53.678Z,389.00
2024-05-09T00:18:24.916Z,389.00
2024-05-09T00:18:56.061Z,389.00
2024-05-09T00:19:27.286Z,389.00
2024-05-09T00:19:58.254Z,390.00
2024-05-09T00:20:37.203Z,392.00
2024-05-09T00:21:12.911Z,395.00
2024-05-09T00:21:43.963Z,396.33
2024-05-09T00:22:14.865Z,397.00
2024-05-09T00:22:48.335Z,398.00
2024-05-09T00:23:19.310Z,398.67
2024-05-09T00:23:50.292Z,399.00
2024-05-09T00:24:21.198Z,399.33
2024-05-09T00:24:52.106Z,400.00
2024-05-09T00:25:23.014Z,400.00
2024-05-09T00:25:53.954Z,400.00
2024-05-09T00:26:25.144Z,400.00
2024-05-09T00:26:56.965Z,399.00
2024-05-09T00:27:27.861Z,399.00
2024-05-09T00:27:58.768Z,399.00
2024-05-09T00:28:29.695Z,399.00
2024-05-09T00:29:00.744Z,398.00
2024-05-09T00:29:33.106Z,398.00
2024-05-09T00:30:07.002Z,398.00
2024-05-09T00:30:38.105Z,398.00
2024-05-09T00:31:09.159Z,398.00
2024-05-09T00:31:40.106Z,398.00
2024-05-09T00:32:11.334Z,398.00
2024-05-09T00:32:42.555Z,398.00
2024-05-09T00:33:13.872Z,398.00
2024-05-09T00:33:45.158Z,398.00
2024-05-09T00:34:16.252Z,398.00
2024-05-09T00:34:47.190Z,398.00
2024-05-09T00:35:18.179Z,397.33
2024-05-09T00:35:49.083Z,397.00
2024-05-09T00:36:20.021Z,397.00
2024-05-09T00:36:50.978Z,397.00
2024-05-09T00:37:21.917Z,396.00
2024-05-09T00:37:52.933Z,396.00
2024-05-09T00:38:23.888Z,396.00
2024-05-09T00:38:54.877Z,396.00
2024-05-09T00:39:25.968Z,396.00
2024-05-09T00:39:56.985Z,396.00
2024-05-09T00:40:38.719Z,396.00
2024-05-09T00:41:12.197Z,395.00
2024-05-09T00:41:43.125Z,395.00
2024-05-09T00:42:14.131Z,394.33
2024-05-09T00:42:46.130Z,394.00
2024-05-09T00:43:17.206Z,393.33
2024-05-09T00:43:48.155Z,393.00
2024-05-09T00:44:19.181Z,393.00
2024-05-09T00:44:51.521Z,392.67
2024-05-09T00:45:22.461Z,392.00
2024-05-09T00:45:53.984Z,391.67
2024-05-09T00:46:25.161Z,391.00
2024-05-09T00:46:56.332Z,390.00
2024-05-09T00:47:27.658Z,388.67
2024-05-09T00:48:00.549Z,386.67
2024-05-09T00:48:33.292Z,385.33
2024-05-09T00:49:04.977Z,385.00
2024-05-09T00:49:36.060Z,384.33
2024-05-09T00:50:15.986Z,384.00
2024-05-09T00:50:54.420Z,384.33
2024-05-09T00:51:28.305Z,385.00
2024-05-09T00:52:01.422Z,385.00
2024-05-09T00:52:32.586Z,385.00
2024-05-09T00:53:04.750Z,385.00
2024-05-09T00:53:35.879Z,385.00
2024-05-09T00:54:07.254Z,385.00
2024-05-09T00:54:38.287Z,385.00
2024-05-09T00:55:09.388Z,384.33
2024-05-09T00:55:41.166Z,384.00
2024-05-09T00:56:12.457Z,384.00
2024-05-09T00:56:43.751Z,384.00
2024-05-09T00:57:15.932Z,384.00
2024-05-09T00:57:47.008Z,384.00
2024-05-09T00:58:21.572Z,384.00
2024-05-09T00:58:54.069Z,384.00
2024-05-09T00:59:30.863Z,384.00
2024-05-09T01:00:06.064Z,384.00
2024-05-09T01:00:41.105Z,383.67
2024-05-09T01:01:13.061Z,383.33
2024-05-09T01:01:45.180Z,383.00
2024-05-09T01:02:16.528Z,384.00
2024-05-09T01:02:47.571Z,383.33
2024-05-09T01:03:19.349Z,383.00
2024-05-09T01:03:51.951Z,383.00
2024-05-09T01:04:23.030Z,383.00
2024-05-09T01:04:54.309Z,382.33
2024-05-09T01:05:25.599Z,381.67
2024-05-09T01:05:56.775Z,381.00
2024-05-09T01:06:27.878Z,380.33
2024-05-09T01:06:58.891Z,380.00
2024-05-09T01:07:29.972Z,379.00
2024-05-09T01:08:01.653Z,379.00
2024-05-09T01:08:32.865Z,379.00
2024-05-09T01:09:03.858Z,379.00
2024-05-09T01:09:34.797Z,379.00
2024-05-09T01:10:11.702Z,379.00
2024-05-09T01:10:48.844Z,378.33
2024-05-09T01:11:20.056Z,378.00
2024-05-09T01:11:51.204Z,378.00
2024-05-09T01:12:22.255Z,378.00
2024-05-09T01:12:53.236Z,378.00
2024-05-09T01:13:24.156Z,377.33
2024-05-09T01:13:55.083Z,377.00
2024-05-09T01:14:26.136Z,377.00
2024-05-09T01:14:57.091Z,377.00
2024-05-09T01:15:29.360Z,376.00
2024-05-09T01:16:00.930Z,375.67
2024-05-09T01:16:32.559Z,375.00
2024-05-09T01:17:04.225Z,374.67
2024-05-09T01:17:35.413Z,374.00
2024-05-09T01:18:08.957Z,372.67
2024-05-09T01:18:40.422Z,370.67
2024-05-09T01:19:18.868Z,368.00
2024-05-09T01:19:49.950Z,364.33
2024-05-09T01:20:31.746Z,364.00
2024-05-09T01:21:10.973Z,363.33
2024-05-09T01:21:42.738Z,364.00
2024-05-09T01:22:13.679Z,364.00
2024-05-09T01:22:44.773Z,364.00
2024-05-09T01:23:17.153Z,364.33
2024-05-09T01:23:48.086Z,365.00
2024-05-09T01:24:19.159Z,365.00
2024-05-09T01:24:50.036Z,365.67
2024-05-09T01:25:21.100Z,366.00
2024-05-09T01:25:52.054Z,366.00
2024-05-09T01:26:23.038Z,366.00
2024-05-09T01:26:53.940Z,364.67
2024-05-09T01:27:24.804Z,364.00
2024-05-09T01:27:55.679Z,362.67
2024-05-09T01:28:26.528Z,362.00
2024-05-09T01:28:57.480Z,361.33
2024-05-09T01:29:28.455Z,359.33
2024-05-09T01:29:59.352Z,358.00
2024-05-09T01:30:34.922Z,357.00
2024-05-09T01:31:07.949Z,357.33
2024-05-09T01:31:38.854Z,358.00
2024-05-09T01:32:09.855Z,358.00
2024-05-09T01:32:41.005Z,357.67
2024-05-09T01:33:12.855Z,357.67
2024-05-09T01:33:44.537Z,357.00
2024-05-09T01:34:15.528Z,356.67
2024-05-09T01:34:46.606Z,354.67
2024-05-09T01:35:17.632Z,351.33
2024-05-09T01:35:48.568Z,347.33
2024-05-09T01:36:19.449Z,347.00
2024-05-09T01:36:50.357Z,347.00
2024-05-09T01:37:21.256Z,346.67
2024-05-09T01:37:52.257Z,346.00
2024-05-09T01:38:24.477Z,344.33
2024-05-09T01:38:55.444Z,344.67
2024-05-09T01:39:26.481Z,342.67
2024-05-09T01:39:57.596Z,342.00
2024-05-09T01:40:36.516Z,341.33
2024-05-09T01:41:10.169Z,341.33
2024-05-09T01:41:41.113Z,339.67
2024-05-09T01:42:12.060Z,340.00
2024-05-09T01:42:43.222Z,340.67
2024-05-09T01:43:14.487Z,341.33
2024-05-09T01:43:45.460Z,342.00
2024-05-09T01:44:16.464Z,342.00
2024-05-09T01:44:47.444Z,342.33
2024-05-09T01:45:18.343Z,342.00
2024-05-09T01:45:49.240Z,342.00
2024-05-09T01:46:20.180Z,341.67
2024-05-09T01:46:51.099Z,341.67
2024-05-09T01:47:22.310Z,341.00
2024-05-09T01:47:53.494Z,339.67
2024-05-09T01:48:24.712Z,338.67
2024-05-09T01:48:55.838Z,338.00
2024-05-09T01:49:26.888Z,337.33
2024-05-09T01:49:57.887Z,336.33
2024-05-09T01:50:36.977Z,336.00
2024-05-09T01:51:12.003Z,335.67
2024-05-09T01:51:43.015Z,336.00
2024-05-09T01:52:13.896Z,336.00
2024-05-09T01:52:44.829Z,336.33
2024-05-09T01:53:15.929Z,332.33
2024-05-09T01:53:48.405Z,311.33
2024-05-09T01:54:19.331Z,295.33
2024-05-09T01:54:50.252Z,286.33
2024-05-09T01:55:21.140Z,277.67
2024-05-09T01:55:52.051Z,264.67
2024-05-09T01:56:23.101Z,263.00
2024-05-09T01:56:54.032Z,256.00
2024-05-09T01:57:24.948Z,253.00
2024-05-09T01:57:55.823Z,254.33
2024-05-09T01:58:27.473Z,263.00
2024-05-09T01:58:58.418Z,262.00
2024-05-09T01:59:29.710Z,248.67
2024-05-09T02:00:00.677Z,252.00
2024-05-09T02:00:38.419Z,258.33
2024-05-09T02:01:12.462Z,267.00
2024-05-09T02:01:56.266Z,259.67
2024-05-09T02:02:28.726Z,243.33
2024-05-09T02:02:59.896Z,245.33
2024-05-09T02:03:31.087Z,250.67
2024-05-09T02:04:02.545Z,250.00
2024-05-09T02:04:33.729Z,248.33
2024-05-09T02:05:05.608Z,252.00
2024-05-09T02:05:36.974Z,257.67
2024-05-09T02:06:08.240Z,261.00
2024-05-09T02:06:39.649Z,254.67
2024-05-09T02:07:10.542Z,242.00
2024-05-09T02:07:41.456Z,235.33
2024-05-09T02:08:13.778Z,230.33
2024-05-09T02:08:45.162Z,214.33
2024-05-09T02:09:17.495Z,203.00
2024-05-09T02:09:50.901Z,192.33
2024-05-09T02:10:26.516Z,187.00
2024-05-09T02:11:03.501Z,194.67
2024-05-09T02:11:41.839Z,196.67
2024-05-09T02:12:13.076Z,181.67
2024-05-09T02:12:44.059Z,170.67
2024-05-09T02:13:15.708Z,172.67
2024-05-09T02:13:46.896Z,182.33
2024-05-09T02:14:18.028Z,175.67
2024-05-09T02:14:50.452Z,174.67
2024-05-09T02:15:21.343Z,176.33
2024-05-09T02:15:52.475Z,179.00
2024-05-09T02:16:23.408Z,188.00
2024-05-09T02:16:54.476Z,195.67
2024-05-09T02:17:25.600Z,198.00
2024-05-09T02:17:56.926Z,196.00
2024-05-09T02:18:28.160Z,191.67
2024-05-09T02:18:59.209Z,189.67
2024-05-09T02:19:30.235Z,193.33
2024-05-09T02:20:01.258Z,196.67
2024-05-09T02:20:36.269Z,201.00
2024-05-09T02:21:08.263Z,210.00
2024-05-09T02:21:39.243Z,215.67
2024-05-09T02:22:10.373Z,217.33
2024-05-09T02:22:41.298Z,219.67
2024-05-09T02:23:12.525Z,221.67
2024-05-09T02:23:44.030Z,222.00
2024-05-09T02:24:15.014Z,222.00
2024-05-09T02:24:47.299Z,222.00
2024-05-09T02:25:20.881Z,223.00
2024-05-09T02:25:51.786Z,224.00
2024-05-09T02:26:22.774Z,224.00
2024-05-09T02:26:53.716Z,223.67
2024-05-09T02:27:24.664Z,223.00
2024-05-09T02:27:55.929Z,223.00
2024-05-09T02:28:26.829Z,223.00
2024-05-09T02:28:58.203Z,223.00
2024-05-09T02:29:29.439Z,223.00
2024-05-09T02:30:00.530Z,224.00
2024-05-09T02:30:39.080Z,224.67
2024-05-09T02:31:12.452Z,229.67
2024-05-09T02:31:43.605Z,235.33
2024-05-09T02:32:14.670Z,239.00
2024-05-09T02:32:45.957Z,238.00
2024-05-09T02:33:17.148Z,236.67
2024-05-09T02:33:48.361Z,235.67
2024-05-09T02:34:19.446Z,235.00
2024-05-09T02:34:50.385Z,234.00
2024-05-09T02:35:21.401Z,231.67
2024-05-09T02:35:52.345Z,229.00
2024-05-09T02:36:23.272Z,227.00
2024-05-09T02:36:54.173Z,226.00
2024-05-09T02:37:25.050Z,225.33
2024-05-09T02:37:55.990Z,223.67
2024-05-09T02:38:27.101Z,220.67
2024-05-09T02:38:58.049Z,215.67
2024-05-09T02:39:29.032Z,214.67
2024-05-09T02:40:01.343Z,214.67
2024-05-09T02:40:37.314Z,215.00
2024-05-09T02:41:10.142Z,214.33
2024-05-09T02:41:41.088Z,214.00
2024-05-09T02:42:12.088Z,214.67
2024-05-09T02:42:43.104Z,215.00
2024-05-09T02:43:14.029Z,212.67
2024-05-09T02:43:44.956Z,206.00
2024-05-09T02:44:16.123Z,199.67
2024-05-09T02:44:47.098Z,201.67
2024-05-09T02:45:18.031Z,203.33
2024-05-09T02:45:48.939Z,204.00
2024-05-09T02:46:19.867Z,203.33
2024-05-09T02:46:50.788Z,203.33
2024-05-09T02:47:22.012Z,205.00
2024-05-09T02:47:53.337Z,197.33
2024-05-09T02:48:24.562Z,181.00
2024-05-09T02:48:55.647Z,176.00
2024-05-09T02:49:26.698Z,178.33
2024-05-09T02:49:57.769Z,167.67
2024-05-09T02:50:34.340Z,153.67
2024-05-09T02:51:09.679Z,138.00
2024-05-09T02:51:40.609Z,127.00
2024-05-09T02:52:11.640Z,122.33
2024-05-09T02:52:42.557Z,120.33
2024-05-09T02:53:14.329Z,119.00
2024-05-09T02:53:45.677Z,121.67
2024-05-09T02:54:16.555Z,127.67
2024-05-09T02:54:47.421Z,134.67
2024-05-09T02:55:19.742Z,142.67
2024-05-09T02:55:50.701Z,142.33
2024-05-09T02:56:21.767Z,130.00
2024-05-09T02:56:52.675Z,124.67
2024-05-09T02:57:23.590Z,127.67
2024-05-09T02:57:54.484Z,128.00
2024-05-09T02:58:25.409Z,127.33
2024-05-09T02:58:56.369Z,127.67
2024-05-09T02:59:27.744Z,127.00
2024-05-09T02:59:58.824Z,129.67
2024-05-09T03:00:37.949Z,126.00
2024-05-09T03:01:11.921Z,113.67
2024-05-09T03:01:43.025Z,105.67
2024-05-09T03:02:14.259Z,105.67
2024-05-09T03:02:45.375Z,104.00
2024-05-09T03:03:16.604Z,98.67
2024-05-09T03:03:47.828Z,90.00
2024-05-09T03:04:18.962Z,85.33
2024-05-09T03:04:49.942Z,77.33
2024-05-09T03:05:21.005Z,75.00
2024-05-09T03:05:52.009Z,77.00
2024-05-09T03:06:23.010Z,85.00
2024-05-09T03:06:53.964Z,91.00
2024-05-09T03:07:24.943Z,95.00
2024-05-09T03:07:55.859Z,94.33
2024-05-09T03:08:27.102Z,82.33
2024-05-09T03:08:58.963Z,77.33
2024-05-09T03:09:29.872Z,84.00
2024-05-09T03:10:00.913Z,91.00
2024-05-09T03:10:36.399Z,95.00
2024-05-09T03:11:09.367Z,97.00
2024-05-09T03:11:40.567Z,101.00
2024-05-09T03:12:11.816Z,105.67
2024-05-09T03:12:43.028Z,109.00
2024-05-09T03:13:15.362Z,114.33
2024-05-09T03:13:50.269Z,125.00
2024-05-09T03:14:21.299Z,132.00
2024-05-09T03:14:52.604Z,131.00
2024-05-09T03:15:23.511Z,128.00
2024-05-09T03:15:54.437Z,126.33
2024-05-09T03:16:25.434Z,125.00
2024-05-09T03:16:56.374Z,122.67
2024-05-09T03:17:27.485Z,120.33
2024-05-09T03:17:58.681Z,115.33
2024-05-09T03:18:29.954Z,103.00
2024-05-09T03:19:01.072Z,101.00
2024-05-09T03:19:34.115Z,102.33
2024-05-09T03:20:14.528Z,103.00
2024-05-09T03:20:48.386Z,103.00
2024-05-09T03:21:19.501Z,104.00
2024-05-09T03:21:50.394Z,105.33
2024-05-09T03:22:21.311Z,114.00
2024-05-09T03:22:55.496Z,121.33
2024-05-09T03:23:27.648Z,122.00
2024-05-09T03:23:58.675Z,120.00
2024-05-09T03:24:29.572Z,117.33
2024-05-09T03:25:00.472Z,116.00
2024-05-09T03:25:32.806Z,112.67
2024-05-09T03:26:09.119Z,104.67
2024-05-09T03:26:40.581Z,91.00
2024-05-09T03:27:11.559Z,79.33
2024-05-09T03:27:42.470Z,67.33
2024-05-09T03:28:13.378Z,59.33
2024-05-09T03:28:44.731Z,50.33
2024-05-09T03:29:15.718Z,41.67
2024-05-09T03:29:46.839Z,38.67
2024-05-09T03:30:29.256Z,40.00
2024-05-09T03:31:07.376Z,40.33
2024-05-09T03:31:38.338Z,40.00
2024-05-09T03:32:09.271Z,42.00
2024-05-09T03:32:42.641Z,41.00
2024-05-09T03:33:15.120Z,39.33
2024-05-09T03:33:47.029Z,39.33
2024-05-09T03:34:18.032Z,43.00
2024-05-09T03:34:48.958Z,49.67
2024-05-09T03:35:20.011Z,54.67
2024-05-09T03:35:50.885Z,56.00
2024-05-09T03:36:21.802Z,57.00
2024-05-09T03:36:52.744Z,57.33
2024-05-09T03:37:23.726Z,58.00
2024-05-09T03:37:54.639Z,56.33
2024-05-09T03:38:25.589Z,50.33
2024-05-09T03:38:56.584Z,45.33
2024-05-09T03:39:27.492Z,41.00
2024-05-09T03:39:58.358Z,36.00
2024-05-09T03:40:31.042Z,34.33
2024-05-09T03:41:04.073Z,38.00
2024-05-09T03:41:35.083Z,40.67
2024-05-09T03:42:06.123Z,41.00
2024-05-09T03:42:37.028Z,40.67
2024-05-09T03:43:08.016Z,37.00
2024-05-09T03:43:38.917Z,32.00
2024-05-09T03:44:09.929Z,26.00
2024-05-09T03:44:40.935Z,21.33
2024-05-09T03:45:12.213Z,19.33
2024-05-09T03:45:44.051Z,19.00
2024-05-09T03:46:14.968Z,19.00
2024-05-09T03:46:45.897Z,19.33
2024-05-09T03:47:17.062Z,21.67
2024-05-09T03:47:48.477Z,20.33
2024-05-09T03:48:19.989Z,18.33
2024-05-09T03:48:51.272Z,18.33
2024-05-09T03:49:22.534Z,20.00
2024-05-09T03:49:53.592Z,22.33
2024-05-09T03:50:30.216Z,23.00
2024-05-09T03:51:06.060Z,24.00
2024-05-09T03:51:36.987Z,25.00
2024-05-09T03:52:07.888Z,25.00
2024-05-09T03:52:38.831Z,25.67
2024-05-09T03:53:11.309Z,26.33
2024-05-09T03:53:42.438Z,28.00
2024-05-09T03:54:13.668Z,34.33
2024-05-09T03:54:44.782Z,44.67
2024-05-09T03:55:15.726Z,55.33
2024-05-09T03:55:46.724Z,56.33
2024-05-09T03:56:19.110Z,51.33
2024-05-09T03:56:50.098Z,45.33
2024-05-09T03:57:21.020Z,35.33
2024-05-09T03:57:52.104Z,33.33
2024-05-09T03:58:23.034Z,34.33
2024-05-09T03:58:54.399Z,36.67
2024-05-09T03:59:25.667Z,38.00
2024-05-09T03:59:56.691Z,36.67
2024-05-09T04:00:35.232Z,30.67
2024-05-09T04:01:09.517Z,23.67
2024-05-09T04:01:40.597Z,20.33
2024-05-09T04:02:11.973Z,20.67
2024-05-09T04:02:46.685Z,22.00
2024-05-09T04:03:18.342Z,21.67
2024-05-09T04:03:49.858Z,19.33
2024-05-09T04:04:20.845Z,19.67
2024-05-09T04:04:51.835Z,20.67
2024-05-09T04:05:22.821Z,21.67
2024-05-09T04:05:53.740Z,22.00
2024-05-09T04:06:25.679Z,22.33
2024-05-09T04:06:56.589Z,23.00
2024-05-09T04:07:27.525Z,24.33
2024-05-09T04:07:58.651Z,25.67
2024-05-09T04:08:29.655Z,26.00
2024-05-09T04:09:00.621Z,26.00
2024-05-09T04:09:31.499Z,25.67
2024-05-09T04:10:04.085Z,24.00
2024-05-09T04:10:36.239Z,22.00
2024-05-09T04:11:07.195Z,22.00
2024-05-09T04:11:39.578Z,22.00
2024-05-09T04:12:10.700Z,22.00
2024-05-09T04:12:41.793Z,22.00
2024-05-09T04:13:12.705Z,22.00
2024-05-09T04:13:43.846Z,21.33
2024-05-09T04:14:14.830Z,19.67
2024-05-09T04:14:45.874Z,16.33
2024-05-09T04:15:16.786Z,13.00
2024-05-09T04:15:47.745Z,11.00
2024-05-09T04:16:18.665Z,11.00
2024-05-09T04:16:49.625Z,11.00
2024-05-09T04:17:20.591Z,11.67
2024-05-09T04:17:51.832Z,12.67
2024-05-09T04:18:22.996Z,13.00
2024-05-09T04:18:54.185Z,14.00
2024-05-09T04:19:25.226Z,14.67
2024-05-09T04:19:56.226Z,15.00
2024-05-09T04:20:37.072Z,16.00
2024-05-09T04:21:10.796Z,16.00
2024-05-09T04:21:41.988Z,16.67
2024-05-09T04:22:12.962Z,17.00
2024-05-09T04:22:43.943Z,17.00
2024-05-09T04:23:15.184Z,17.67
2024-05-09T04:23:46.236Z,18.00
2024-05-09T04:24:17.200Z,18.00
2024-05-09T04:24:48.156Z,19.00
2024-05-09T04:25:19.055Z,19.00
2024-05-09T04:25:50.034Z,20.00
2024-05-09T04:26:21.042Z,24.67
2024-05-09T04:26:53.324Z,29.00
2024-05-09T04:27:24.203Z,31.67
2024-05-09T04:27:55.122Z,33.00
2024-05-09T04:28:26.000Z,36.67
2024-05-09T04:28:56.955Z,40.67
2024-05-09T04:29:28.260Z,39.00
2024-05-09T04:29:59.338Z,37.33
2024-05-09T04:30:36.978Z,36.00
2024-05-09T04:31:10.829Z,37.33
2024-05-09T04:31:41.768Z,51.67
2024-05-09T04:32:12.869Z,80.00
2024-05-09T04:32:44.152Z,114.33
2024-05-09T04:33:15.763Z,112.00
2024-05-09T04:33:46.939Z,93.67
2024-05-09T04:34:18.043Z,82.67
2024-05-09T04:34:49.004Z,71.67
2024-05-09T04:35:19.916Z,73.33
2024-05-09T04:35:50.844Z,70.00
2024-05-09T04:36:21.756Z,69.33
2024-05-09T04:36:52.853Z,69.00
2024-05-09T04:37:23.819Z,66.67
2024-05-09T04:37:54.780Z,65.33
2024-05-09T04:38:25.706Z,64.00
2024-05-09T04:38:56.626Z,62.67
2024-05-09T04:39:27.697Z,61.00
2024-05-09T04:39:58.557Z,52.00
2024-05-09T04:40:33.788Z,41.33
2024-05-09T04:41:07.202Z,37.33
2024-05-09T04:41:38.136Z,37.67
2024-05-09T04:42:10.454Z,38.67
2024-05-09T04:42:41.407Z,34.67
2024-05-09T04:43:16.469Z,30.33
2024-05-09T04:43:47.657Z,30.67
2024-05-09T04:44:18.762Z,32.00
2024-05-09T04:44:49.636Z,31.67
2024-05-09T04:45:20.536Z,29.33
2024-05-09T04:45:52.514Z,29.67
2024-05-09T04:46:23.451Z,31.67
2024-05-09T04:46:54.441Z,32.00
2024-05-09T04:47:25.506Z,31.67
2024-05-09T04:47:56.935Z,29.00
2024-05-09T04:48:28.294Z,26.00
2024-05-09T04:48:59.543Z,22.33
2024-05-09T04:49:30.759Z,21.00
2024-05-09T04:50:01.862Z,20.33
2024-05-09T04:50:37.031Z,19.00
2024-05-09T04:51:10.117Z,16.67
2024-05-09T04:51:41.266Z,15.67
2024-05-09T04:52:12.299Z,16.33
2024-05-09T04:52:43.207Z,17.67
2024-05-09T04:53:15.594Z,19.00
2024-05-09T04:53:46.615Z,19.33
2024-05-09T04:54:29.823Z,18.00
2024-05-09T04:55:07.002Z,15.67
2024-05-09T04:55:38.775Z,14.00
2024-05-09T04:56:09.801Z,12.00
2024-05-09T04:56:40.825Z,10.00
2024-05-09T04:57:13.161Z,9.00
2024-05-09T04:57:44.062Z,9.33
2024-05-09T04:58:15.072Z,11.00
2024-05-09T04:58:46.017Z,12.00
2024-05-09T04:59:17.001Z,13.00
2024-05-09T04:59:48.184Z,13.67
2024-05-09T05:00:28.127Z,14.00
2024-05-09T05:01:03.791Z,14.00
2024-05-09T05:01:34.750Z,14.00
2024-05-09T05:02:05.857Z,14.00
2024-05-09T05:02:36.910Z,14.00
2024-05-09T05:03:12.430Z,14.67
2024-05-09T05:03:46.063Z,14.33
2024-05-09T05:04:17.407Z,14.00
2024-05-09T05:04:48.577Z,13.67
2024-05-09T05:05:19.762Z,12.67
2024-05-09T05:05:50.744Z,11.33
2024-05-09T05:06:21.656Z,10.33
2024-05-09T05:06:52.631Z,10.00
2024-05-09T05:07:23.525Z,9.33
2024-05-09T05:07:54.536Z,9.00
2024-05-09T05:08:25.484Z,9.00
2024-05-09T05:08:59.075Z,9.00
2024-05-09T05:09:30.487Z,9.00
2024-05-09T05:10:01.422Z,9.00
2024-05-09T05:10:35.942Z,9.00
2024-05-09T05:11:07.942Z,9.00
2024-05-09T05:11:38.994Z,9.00
2024-05-09T05:12:10.259Z,10.00
2024-05-09T05:12:42.976Z,10.00
2024-05-09T05:13:13.974Z,10.67
2024-05-09T05:13:44.903Z,11.00
2024-05-09T05:14:16.043Z,11.67
2024-05-09T05:14:46.999Z,12.00
2024-05-09T05:15:17.929Z,12.67
2024-05-09T05:15:50.079Z,13.67
2024-05-09T05:16:21.088Z,14.00
2024-05-09T05:16:52.076Z,14.00
2024-05-09T05:17:23.308Z,14.00
2024-05-09T05:17:54.538Z,14.00
2024-05-09T05:18:28.469Z,13.00
2024-05-09T05:18:59.667Z,12.33
2024-05-09T05:19:30.921Z,12.00
2024-05-09T05:20:02.403Z,11.67
2024-05-09T05:20:34.321Z,11.00
2024-05-09T05:21:06.200Z,11.00
2024-05-09T05:21:37.086Z,11.33
2024-05-09T05:22:08.057Z,12.00
2024-05-09T05:22:38.984Z,12.67
2024-05-09T05:23:11.334Z,13.67
2024-05-09T05:23:42.350Z,14.00
2024-05-09T05:24:13.382Z,14.67
2024-05-09T05:24:44.301Z,16.00
2024-05-09T05:25:15.233Z,19.67
2024-05-09T05:25:47.119Z,24.00
2024-05-09T05:26:18.125Z,34.67
2024-05-09T05:26:49.052Z,54.33
2024-05-09T05:27:20.009Z,66.33
2024-05-09T05:27:52.331Z,76.00
2024-05-09T05:28:23.352Z,88.33
2024-05-09T05:28:54.386Z,95.67
2024-05-09T05:29:25.374Z,95.33
2024-05-09T05:29:56.824Z,87.00
2024-05-09T05:30:32.594Z,82.00
2024-05-09T05:31:05.436Z,85.33
2024-05-09T05:31:36.430Z,105.00
2024-05-09T05:32:07.485Z,123.00
2024-05-09T05:32:38.671Z,115.67
2024-05-09T05:33:12.604Z,93.00
2024-05-09T05:33:43.745Z,88.33
2024-05-09T05:34:14.724Z,102.67
2024-05-09T05:34:45.685Z,107.00
2024-05-09T05:35:16.649Z,125.00
2024-05-09T05:35:47.717Z,131.67
2024-05-09T05:36:18.673Z,122.67
2024-05-09T05:36:49.586Z,120.67
2024-05-09T05:37:20.530Z,122.33
2024-05-09T05:37:51.609Z,112.00
2024-05-09T05:38:26.097Z,108.00
2024-05-09T05:38:59.147Z,120.00
2024-05-09T05:39:30.226Z,129.67
2024-05-09T05:40:01.120Z,140.67
2024-05-09T05:40:36.550Z,151.67
2024-05-09T05:41:09.329Z,173.00
2024-05-09T05:41:40.465Z,195.00
2024-05-09T05:42:11.356Z,218.00
2024-05-09T05:42:42.469Z,240.00
2024-05-09T05:43:17.791Z,254.00
2024-05-09T05:43:48.744Z,237.33
2024-05-09T05:44:19.745Z,194.33
2024-05-09T05:44:50.673Z,152.00
2024-05-09T05:45:21.830Z,107.33
2024-05-09T05:45:52.781Z,95.00
2024-05-09T05:46:23.813Z,116.33
2024-05-09T05:46:54.832Z,139.67
2024-05-09T05:47:25.901Z,153.33
2024-05-09T05:47:57.099Z,148.33
2024-05-09T05:48:28.360Z,151.00
2024-05-09T05:48:59.463Z,165.00
2024-05-09T05:49:30.509Z,183.67
2024-05-09T05:50:01.522Z,192.67
2024-05-09T05:50:36.356Z,174.33
2024-05-09T05:51:09.188Z,161.33
2024-05-09T05:51:40.305Z,148.67
2024-05-09T05:52:11.261Z,123.33
2024-05-09T05:52:42.522Z,111.00
2024-05-09T05:53:13.777Z,106.67
2024-05-09T05:53:44.912Z,101.00
2024-05-09T05:54:15.856Z,107.67
2024-05-09T05:54:46.887Z,110.67
2024-05-09T05:55:17.793Z,90.00
2024-05-09T05:55:48.834Z,70.33
2024-05-09T05:56:19.883Z,63.00
2024-05-09T05:56:50.835Z,60.67
2024-05-09T05:57:21.755Z,62.33
2024-05-09T05:57:52.733Z,62.00
2024-05-09T05:58:25.003Z,57.00
2024-05-09T05:58:55.981Z,51.00
2024-05-09T05:59:26.968Z,53.67
2024-05-09T05:59:57.833Z,60.33
2024-05-09T06:00:34.999Z,70.00
2024-05-09T06:01:09.426Z,81.67
2024-05-09T06:01:40.372Z,83.00
2024-05-09T06:02:11.429Z,79.00
2024-05-09T06:02:42.489Z,64.67
2024-05-09T06:03:14.274Z,57.00
2024-05-09T06:03:45.682Z,52.33
2024-05-09T06:04:16.763Z,46.33
2024-05-09T06:04:47.989Z,40.33
2024-05-09T06:05:19.118Z,39.33
2024-05-09T06:05:50.094Z,44.33
2024-05-09T06:06:20.994Z,46.67
2024-05-09T06:06:52.044Z,48.33
2024-05-09T06:07:22.958Z,52.00
2024-05-09T06:07:53.966Z,49.33
2024-05-09T06:08:27.075Z,46.33
2024-05-09T06:08:59.710Z,44.67
2024-05-09T06:09:30.620Z,39.33
2024-05-09T06:10:01.493Z,36.00
2024-05-09T06:10:37.859Z,33.33
2024-05-09T06:11:11.129Z,32.00
2024-05-09T06:11:42.331Z,31.00
2024-05-09T06:12:13.451Z,27.00
2024-05-09T06:12:44.385Z,27.33
2024-05-09T06:13:15.309Z,29.67
2024-05-09T06:13:47.585Z,31.00
2024-05-09T06:14:18.542Z,29.67
2024-05-09T06:14:49.581Z,28.67
2024-05-09T06:15:20.499Z,30.67
2024-05-09T06:15:51.489Z,30.33
2024-05-09T06:16:22.454Z,31.33
2024-05-09T06:16:56.918Z,34.33
2024-05-09T06:17:29.330Z,35.67
2024-05-09T06:18:00.647Z,37.00
2024-05-09T06:18:32.126Z,41.00
2024-05-09T06:19:05.966Z,45.67
2024-05-09T06:19:37.106Z,46.00
2024-05-09T06:20:13.511Z,46.00
2024-05-09T06:20:51.926Z,45.00
2024-05-09T06:21:23.120Z,43.67
2024-05-09T06:21:54.117Z,40.00
2024-05-09T06:22:25.056Z,37.00
2024-05-09T06:22:56.216Z,33.33
2024-05-09T06:23:27.414Z,29.00
2024-05-09T06:23:58.479Z,25.00
2024-05-09T06:24:29.446Z,23.00
2024-05-09T06:25:00.431Z,22.33
2024-05-09T06:25:31.371Z,22.00
2024-05-09T06:26:06.461Z,21.67
2024-05-09T06:26:40.992Z,20.33
2024-05-09T06:27:12.021Z,21.67
2024-05-09T06:27:42.901Z,22.67
2024-05-09T06:28:14.144Z,23.67
2024-05-09T06:28:45.243Z,24.00
2024-05-09T06:29:17.595Z,24.33
2024-05-09T06:29:48.526Z,25.00
2024-05-09T06:30:26.187Z,25.67
2024-05-09T06:31:05.915Z,26.00
2024-05-09T06:31:38.901Z,27.00
2024-05-09T06:32:09.871Z,27.00
2024-05-09T06:32:42.274Z,27.00
2024-05-09T06:33:15.512Z,28.00
2024-05-09T06:33:47.546Z,28.00
2024-05-09T06:34:18.858Z,28.00
2024-05-09T06:34:50.067Z,28.00
2024-05-09T06:35:21.293Z,28.00
2024-05-09T06:35:52.309Z,27.00
2024-05-09T06:36:23.305Z,26.00
2024-05-09T06:36:54.343Z,26.00
2024-05-09T06:37:25.279Z,25.00
2024-05-09T06:37:56.258Z,25.00
2024-05-09T06:38:27.310Z,25.00
2024-05-09T06:38:58.259Z,25.00
2024-05-09T06:39:29.321Z,25.67
2024-05-09T06:40:00.211Z,26.67
2024-05-09T06:40:37.356Z,27.33
2024-05-09T06:41:10.488Z,29.67
2024-05-09T06:41:41.517Z,30.00
2024-05-09T06:42:12.437Z,30.00
2024-05-09T06:42:43.339Z,30.00
2024-05-09T06:43:16.844Z,31.00